sensor_id;sensor_type;location;lat;lon;timestamp;P1;durP1;ratioP1;P2;durP2;ratioP2
37943;SDS011;23767;42.024;23.086;2023-02-22T00:00:09;13.85;;;7.32;;
37943;SDS011;23767;42.024;23.086;2023-02-22T00:02:46;11.53;;;6.60;;
37943;SDS011;23767;42.024;23.086;2023-02-22T00:05:12;13.00;;;6.40;;
37943;SDS011;23767;42.024;23.086;2023-02-22T00:07:41;13.50;;;7.00;;
37943;SDS011;23767;42.024;23.086;2023-02-22T00:10:08;12.75;;;7.07;;
37943;SDS011;23767;42.024;23.086;2023-02-22T00:12:40;12.43;;;7.13;;
37943;SDS011;23767;42.024;23.086;2023-02-22T00:15:07;16.08;;;8.48;;
37943;SDS011;23767;42.024;23.086;2023-02-22T00:17:33;14.73;;;8.35;;
37943;SDS011;23767;42.024;23.086;2023-02-22T00:19:59;17.50;;;8.60;;
37943;SDS011;23767;42.024;23.086;2023-02-22T00:22:25;16.67;;;8.95;;
37943;SDS011;23767;42.024;23.086;2023-02-22T00:24:51;16.75;;;9.80;;
37943;SDS011;23767;42.024;23.086;2023-02-22T00:27:19;18.70;;;10.52;;
37943;SDS011;23767;42.024;23.086;2023-02-22T00:29:45;14.27;;;9.27;;
37943;SDS011;23767;42.024;23.086;2023-02-22T00:32:12;16.98;;;8.98;;
37943;SDS011;23767;42.024;23.086;2023-02-22T00:34:39;13.70;;;9.23;;
37943;SDS011;23767;42.024;23.086;2023-02-22T00:37:05;17.02;;;9.48;;
37943;SDS011;23767;42.024;23.086;2023-02-22T00:39:31;16.87;;;10.17;;
37943;SDS011;23767;42.024;23.086;2023-02-22T00:41:57;17.83;;;9.90;;
37943;SDS011;23767;42.024;23.086;2023-02-22T00:44:23;17.35;;;10.32;;
37943;SDS011;23767;42.024;23.086;2023-02-22T00:46:49;17.52;;;10.63;;
37943;SDS011;23767;42.024;23.086;2023-02-22T00:49:15;15.00;;;10.07;;
37943;SDS011;23767;42.024;23.086;2023-02-22T00:51:41;16.17;;;9.90;;
37943;SDS011;23767;42.024;23.086;2023-02-22T00:54:08;16.02;;;8.88;;
37943;SDS011;23767;42.024;23.086;2023-02-22T00:56:34;14.77;;;9.25;;
37943;SDS011;23767;42.024;23.086;2023-02-22T00:59:01;17.60;;;10.13;;
37943;SDS011;23767;42.024;23.086;2023-02-22T01:01:28;15.45;;;10.07;;
37943;SDS011;23767;42.024;23.086;2023-02-22T01:03:54;19.40;;;10.18;;
37943;SDS011;23767;42.024;23.086;2023-02-22T01:06:20;19.92;;;10.57;;
37943;SDS011;23767;42.024;23.086;2023-02-22T01:08:47;20.70;;;11.00;;
37943;SDS011;23767;42.024;23.086;2023-02-22T01:11:16;19.20;;;11.07;;
37943;SDS011;23767;42.024;23.086;2023-02-22T01:13:42;18.83;;;10.80;;
37943;SDS011;23767;42.024;23.086;2023-02-22T01:16:09;26.20;;;12.90;;
37943;SDS011;23767;42.024;23.086;2023-02-22T01:18:35;25.50;;;13.43;;
37943;SDS011;23767;42.024;23.086;2023-02-22T01:21:02;21.50;;;12.13;;
37943;SDS011;23767;42.024;23.086;2023-02-22T01:23:29;25.20;;;12.57;;
37943;SDS011;23767;42.024;23.086;2023-02-22T01:25:55;22.00;;;12.73;;
37943;SDS011;23767;42.024;23.086;2023-02-22T01:28:21;20.60;;;11.70;;
37943;SDS011;23767;42.024;23.086;2023-02-22T01:30:48;20.90;;;11.97;;
37943;SDS011;23767;42.024;23.086;2023-02-22T01:33:14;19.67;;;12.00;;
37943;SDS011;23767;42.024;23.086;2023-02-22T01:35:41;20.63;;;12.67;;
37943;SDS011;23767;42.024;23.086;2023-02-22T01:38:08;23.47;;;12.47;;
37943;SDS011;23767;42.024;23.086;2023-02-22T01:40:35;22.92;;;12.80;;
37943;SDS011;23767;42.024;23.086;2023-02-22T01:43:03;26.63;;;13.27;;
37943;SDS011;23767;42.024;23.086;2023-02-22T01:48:06;22.00;;;11.67;;
37943;SDS011;23767;42.024;23.086;2023-02-22T01:50:34;26.43;;;12.60;;
37943;SDS011;23767;42.024;23.086;2023-02-22T01:53:02;28.70;;;13.73;;
37943;SDS011;23767;42.024;23.086;2023-02-22T01:55:29;28.23;;;13.70;;
37943;SDS011;23767;42.024;23.086;2023-02-22T01:57:56;29.80;;;14.37;;
37943;SDS011;23767;42.024;23.086;2023-02-22T02:00:22;32.90;;;14.73;;
37943;SDS011;23767;42.024;23.086;2023-02-22T02:02:55;35.27;;;16.10;;
37943;SDS011;23767;42.024;23.086;2023-02-22T02:05:26;30.63;;;14.75;;
37943;SDS011;23767;42.024;23.086;2023-02-22T02:07:55;22.65;;;11.77;;
37943;SDS011;23767;42.024;23.086;2023-02-22T02:10:22;28.17;;;15.17;;
37943;SDS011;23767;42.024;23.086;2023-02-22T02:12:49;29.03;;;14.60;;
37943;SDS011;23767;42.024;23.086;2023-02-22T02:17:51;23.63;;;12.77;;
37943;SDS011;23767;42.024;23.086;2023-02-22T02:36:14;21.13;;;11.37;;
37943;SDS011;23767;42.024;23.086;2023-02-22T02:41:13;20.00;;;10.97;;
37943;SDS011;23767;42.024;23.086;2023-02-22T02:43:45;20.27;;;10.37;;
37943;SDS011;23767;42.024;23.086;2023-02-22T02:46:18;16.83;;;9.93;;
37943;SDS011;23767;42.024;23.086;2023-02-22T02:48:48;18.53;;;11.83;;
37943;SDS011;23767;42.024;23.086;2023-02-22T02:51:15;18.27;;;10.73;;
37943;SDS011;23767;42.024;23.086;2023-02-22T02:53:43;19.50;;;10.80;;
37943;SDS011;23767;42.024;23.086;2023-02-22T02:56:11;18.73;;;10.70;;
37943;SDS011;23767;42.024;23.086;2023-02-22T02:58:47;16.70;;;10.33;;
37943;SDS011;23767;42.024;23.086;2023-02-22T03:01:17;17.63;;;11.00;;
37943;SDS011;23767;42.024;23.086;2023-02-22T03:03:58;18.30;;;10.23;;
37943;SDS011;23767;42.024;23.086;2023-02-22T03:08:58;21.50;;;11.20;;
37943;SDS011;23767;42.024;23.086;2023-02-22T03:11:28;19.70;;;10.67;;
37943;SDS011;23767;42.024;23.086;2023-02-22T03:14:40;17.93;;;11.17;;
37943;SDS011;23767;42.024;23.086;2023-02-22T03:16:51;18.90;;;10.82;;
37943;SDS011;23767;42.024;23.086;2023-02-22T03:19:43;17.87;;;10.83;;
37943;SDS011;23767;42.024;23.086;2023-02-22T03:22:15;22.47;;;11.60;;
37943;SDS011;23767;42.024;23.086;2023-02-22T03:27:13;21.67;;;11.40;;
37943;SDS011;23767;42.024;23.086;2023-02-22T03:29:45;18.00;;;12.23;;
37943;SDS011;23767;42.024;23.086;2023-02-22T03:32:15;22.60;;;12.70;;
37943;SDS011;23767;42.024;23.086;2023-02-22T03:34:44;21.10;;;11.73;;
37943;SDS011;23767;42.024;23.086;2023-02-22T03:37:16;22.17;;;11.80;;
37943;SDS011;23767;42.024;23.086;2023-02-22T03:39:43;18.48;;;11.50;;
37943;SDS011;23767;42.024;23.086;2023-02-22T03:42:12;19.33;;;10.57;;
37943;SDS011;23767;42.024;23.086;2023-02-22T03:44:39;20.37;;;11.27;;
37943;SDS011;23767;42.024;23.086;2023-02-22T03:47:08;17.60;;;10.97;;
37943;SDS011;23767;42.024;23.086;2023-02-22T03:49:36;17.67;;;10.53;;
37943;SDS011;23767;42.024;23.086;2023-02-22T03:52:04;15.30;;;9.80;;
37943;SDS011;23767;42.024;23.086;2023-02-22T03:54:31;17.87;;;10.47;;
37943;SDS011;23767;42.024;23.086;2023-02-22T03:59:31;15.15;;;8.82;;
37943;SDS011;23767;42.024;23.086;2023-02-22T04:01:57;15.80;;;8.27;;
37943;SDS011;23767;42.024;23.086;2023-02-22T04:04:24;14.00;;;8.00;;
37943;SDS011;23767;42.024;23.086;2023-02-22T04:06:50;15.77;;;8.43;;
37943;SDS011;23767;42.024;23.086;2023-02-22T04:09:16;16.13;;;8.97;;
37943;SDS011;23767;42.024;23.086;2023-02-22T04:11:42;18.83;;;8.47;;
37943;SDS011;23767;42.024;23.086;2023-02-22T04:14:08;18.33;;;9.27;;
37943;SDS011;23767;42.024;23.086;2023-02-22T04:16:34;15.80;;;9.27;;
37943;SDS011;23767;42.024;23.086;2023-02-22T04:19:00;17.97;;;9.30;;
37943;SDS011;23767;42.024;23.086;2023-02-22T04:21:26;20.17;;;10.47;;
37943;SDS011;23767;42.024;23.086;2023-02-22T04:23:53;19.27;;;10.90;;
37943;SDS011;23767;42.024;23.086;2023-02-22T04:26:19;20.23;;;10.07;;
37943;SDS011;23767;42.024;23.086;2023-02-22T04:28:45;22.67;;;11.83;;
37943;SDS011;23767;42.024;23.086;2023-02-22T04:31:11;20.70;;;11.40;;
37943;SDS011;23767;42.024;23.086;2023-02-22T04:33:37;19.80;;;12.27;;
37943;SDS011;23767;42.024;23.086;2023-02-22T04:36:03;19.97;;;11.43;;
37943;SDS011;23767;42.024;23.086;2023-02-22T04:38:29;19.37;;;11.50;;
37943;SDS011;23767;42.024;23.086;2023-02-22T04:40:55;19.83;;;11.17;;
37943;SDS011;23767;42.024;23.086;2023-02-22T04:43:21;24.00;;;13.40;;
37943;SDS011;23767;42.024;23.086;2023-02-22T04:45:47;21.67;;;12.57;;
37943;SDS011;23767;42.024;23.086;2023-02-22T04:48:13;24.83;;;13.47;;
37943;SDS011;23767;42.024;23.086;2023-02-22T04:50:39;29.00;;;15.50;;
37943;SDS011;23767;42.024;23.086;2023-02-22T04:53:06;22.60;;;13.43;;
37943;SDS011;23767;42.024;23.086;2023-02-22T04:55:32;23.67;;;13.90;;
37943;SDS011;23767;42.024;23.086;2023-02-22T04:57:58;24.63;;;14.07;;
37943;SDS011;23767;42.024;23.086;2023-02-22T05:03:07;26.50;;;14.35;;
37943;SDS011;23767;42.024;23.086;2023-02-22T05:05:33;22.73;;;13.87;;
37943;SDS011;23767;42.024;23.086;2023-02-22T05:07:59;28.03;;;14.27;;
37943;SDS011;23767;42.024;23.086;2023-02-22T05:10:26;27.07;;;14.67;;
37943;SDS011;23767;42.024;23.086;2023-02-22T05:12:52;26.43;;;13.87;;
37943;SDS011;23767;42.024;23.086;2023-02-22T05:15:19;26.83;;;15.53;;
37943;SDS011;23767;42.024;23.086;2023-02-22T05:17:46;24.87;;;15.40;;
37943;SDS011;23767;42.024;23.086;2023-02-22T05:20:25;26.80;;;15.50;;
37943;SDS011;23767;42.024;23.086;2023-02-22T05:22:52;27.23;;;16.37;;
37943;SDS011;23767;42.024;23.086;2023-02-22T05:25:18;31.07;;;16.53;;
37943;SDS011;23767;42.024;23.086;2023-02-22T05:27:48;31.43;;;15.80;;
37943;SDS011;23767;42.024;23.086;2023-02-22T05:30:14;28.70;;;16.27;;
37943;SDS011;23767;42.024;23.086;2023-02-22T05:32:40;28.77;;;15.57;;
37943;SDS011;23767;42.024;23.086;2023-02-22T05:35:06;30.80;;;16.40;;
37943;SDS011;23767;42.024;23.086;2023-02-22T05:37:32;31.43;;;16.37;;
37943;SDS011;23767;42.024;23.086;2023-02-22T05:39:59;29.23;;;15.63;;
37943;SDS011;23767;42.024;23.086;2023-02-22T05:42:25;31.30;;;16.63;;
37943;SDS011;23767;42.024;23.086;2023-02-22T05:44:51;27.07;;;15.87;;
37943;SDS011;23767;42.024;23.086;2023-02-22T05:47:17;27.07;;;15.93;;
37943;SDS011;23767;42.024;23.086;2023-02-22T05:49:43;25.87;;;14.77;;
37943;SDS011;23767;42.024;23.086;2023-02-22T05:52:09;25.03;;;14.97;;
37943;SDS011;23767;42.024;23.086;2023-02-22T05:54:35;25.27;;;15.17;;
37943;SDS011;23767;42.024;23.086;2023-02-22T05:57:02;25.00;;;14.30;;
37943;SDS011;23767;42.024;23.086;2023-02-22T05:59:28;24.97;;;14.77;;
37943;SDS011;23767;42.024;23.086;2023-02-22T06:01:54;26.87;;;14.83;;
37943;SDS011;23767;42.024;23.086;2023-02-22T06:04:20;27.40;;;14.37;;
37943;SDS011;23767;42.024;23.086;2023-02-22T06:06:46;25.50;;;13.27;;
37943;SDS011;23767;42.024;23.086;2023-02-22T06:09:12;29.93;;;15.43;;
37943;SDS011;23767;42.024;23.086;2023-02-22T06:11:38;29.47;;;13.80;;
37943;SDS011;23767;42.024;23.086;2023-02-22T06:14:04;32.60;;;15.87;;
37943;SDS011;23767;42.024;23.086;2023-02-22T06:16:30;36.47;;;20.47;;
37943;SDS011;23767;42.024;23.086;2023-02-22T06:18:56;29.10;;;17.60;;
37943;SDS011;23767;42.024;23.086;2023-02-22T06:21:24;33.20;;;19.20;;
37943;SDS011;23767;42.024;23.086;2023-02-22T06:23:50;34.00;;;20.13;;
37943;SDS011;23767;42.024;23.086;2023-02-22T06:26:17;35.60;;;19.23;;
37943;SDS011;23767;42.024;23.086;2023-02-22T06:28:44;41.47;;;20.73;;
37943;SDS011;23767;42.024;23.086;2023-02-22T06:31:10;35.10;;;20.23;;
37943;SDS011;23767;42.024;23.086;2023-02-22T06:33:36;33.70;;;18.00;;
37943;SDS011;23767;42.024;23.086;2023-02-22T06:36:03;30.87;;;17.20;;
37943;SDS011;23767;42.024;23.086;2023-02-22T06:38:29;30.27;;;17.63;;
37943;SDS011;23767;42.024;23.086;2023-02-22T06:40:55;33.60;;;19.23;;
37943;SDS011;23767;42.024;23.086;2023-02-22T06:43:22;34.20;;;19.00;;
37943;SDS011;23767;42.024;23.086;2023-02-22T06:45:49;37.07;;;19.33;;
37943;SDS011;23767;42.024;23.086;2023-02-22T06:48:15;28.95;;;17.42;;
37943;SDS011;23767;42.024;23.086;2023-02-22T06:50:41;34.92;;;19.05;;
37943;SDS011;23767;42.024;23.086;2023-02-22T06:53:07;30.05;;;17.52;;
37943;SDS011;23767;42.024;23.086;2023-02-22T06:55:34;32.83;;;19.13;;
37943;SDS011;23767;42.024;23.086;2023-02-22T06:58:00;33.83;;;19.52;;
37943;SDS011;23767;42.024;23.086;2023-02-22T07:00:27;37.95;;;19.83;;
37943;SDS011;23767;42.024;23.086;2023-02-22T07:02:53;41.92;;;21.25;;
37943;SDS011;23767;42.024;23.086;2023-02-22T07:05:20;33.75;;;19.40;;
37943;SDS011;23767;42.024;23.086;2023-02-22T07:07:47;30.10;;;19.48;;
37943;SDS011;23767;42.024;23.086;2023-02-22T07:10:32;31.90;;;19.40;;
37943;SDS011;23767;42.024;23.086;2023-02-22T07:12:59;30.55;;;17.15;;
37943;SDS011;23767;42.024;23.086;2023-02-22T07:15:26;30.20;;;17.20;;
37943;SDS011;23767;42.024;23.086;2023-02-22T07:17:52;29.17;;;15.67;;
37943;SDS011;23767;42.024;23.086;2023-02-22T07:20:18;27.53;;;16.50;;
37943;SDS011;23767;42.024;23.086;2023-02-22T07:22:45;26.83;;;15.93;;
37943;SDS011;23767;42.024;23.086;2023-02-22T07:25:11;28.20;;;17.67;;
37943;SDS011;23767;42.024;23.086;2023-02-22T07:27:38;27.43;;;16.70;;
37943;SDS011;23767;42.024;23.086;2023-02-22T07:30:18;27.00;;;17.53;;
37943;SDS011;23767;42.024;23.086;2023-02-22T07:32:45;32.40;;;17.27;;
37943;SDS011;23767;42.024;23.086;2023-02-22T07:35:18;32.17;;;18.80;;
37943;SDS011;23767;42.024;23.086;2023-02-22T07:37:44;28.17;;;18.67;;
37943;SDS011;23767;42.024;23.086;2023-02-22T07:40:12;29.77;;;17.38;;
37943;SDS011;23767;42.024;23.086;2023-02-22T07:42:57;29.40;;;18.55;;
37943;SDS011;23767;42.024;23.086;2023-02-22T07:45:25;26.13;;;16.38;;
37943;SDS011;23767;42.024;23.086;2023-02-22T07:47:52;26.50;;;15.88;;
37943;SDS011;23767;42.024;23.086;2023-02-22T07:50:19;29.30;;;16.80;;
37943;SDS011;23767;42.024;23.086;2023-02-22T07:52:45;31.38;;;16.60;;
37943;SDS011;23767;42.024;23.086;2023-02-22T07:55:12;24.92;;;15.40;;
37943;SDS011;23767;42.024;23.086;2023-02-22T07:57:40;28.27;;;16.00;;
37943;SDS011;23767;42.024;23.086;2023-02-22T08:00:07;26.60;;;15.38;;
37943;SDS011;23767;42.024;23.086;2023-02-22T08:02:33;24.85;;;15.98;;
37943;SDS011;23767;42.024;23.086;2023-02-22T08:04:59;23.63;;;15.07;;
37943;SDS011;23767;42.024;23.086;2023-02-22T08:07:25;24.35;;;14.93;;
37943;SDS011;23767;42.024;23.086;2023-02-22T08:09:51;23.10;;;14.18;;
37943;SDS011;23767;42.024;23.086;2023-02-22T08:12:17;22.95;;;14.57;;
37943;SDS011;23767;42.024;23.086;2023-02-22T08:14:43;24.40;;;14.90;;
37943;SDS011;23767;42.024;23.086;2023-02-22T08:17:09;24.00;;;14.00;;
37943;SDS011;23767;42.024;23.086;2023-02-22T08:19:35;25.00;;;13.85;;
37943;SDS011;23767;42.024;23.086;2023-02-22T08:22:03;24.73;;;13.23;;
37943;SDS011;23767;42.024;23.086;2023-02-22T08:24:29;20.83;;;13.02;;
37943;SDS011;23767;42.024;23.086;2023-02-22T08:26:56;26.10;;;13.55;;
37943;SDS011;23767;42.024;23.086;2023-02-22T08:29:22;21.48;;;12.82;;
37943;SDS011;23767;42.024;23.086;2023-02-22T08:31:57;25.17;;;11.48;;
37943;SDS011;23767;42.024;23.086;2023-02-22T08:34:23;17.17;;;11.50;;
37943;SDS011;23767;42.024;23.086;2023-02-22T08:36:49;19.05;;;11.70;;
37943;SDS011;23767;42.024;23.086;2023-02-22T08:39:15;18.27;;;11.10;;
37943;SDS011;23767;42.024;23.086;2023-02-22T08:41:41;17.10;;;10.68;;
37943;SDS011;23767;42.024;23.086;2023-02-22T08:44:07;16.00;;;10.52;;
37943;SDS011;23767;42.024;23.086;2023-02-22T08:46:33;21.60;;;10.32;;
37943;SDS011;23767;42.024;23.086;2023-02-22T08:48:59;18.65;;;10.05;;
37943;SDS011;23767;42.024;23.086;2023-02-22T08:51:27;18.70;;;9.00;;
37943;SDS011;23767;42.024;23.086;2023-02-22T08:53:53;15.35;;;9.13;;
37943;SDS011;23767;42.024;23.086;2023-02-22T08:56:19;18.58;;;9.45;;
37943;SDS011;23767;42.024;23.086;2023-02-22T08:58:47;22.92;;;10.32;;
37943;SDS011;23767;42.024;23.086;2023-02-22T09:01:13;17.20;;;9.60;;
37943;SDS011;23767;42.024;23.086;2023-02-22T09:03:39;19.02;;;8.75;;
37943;SDS011;23767;42.024;23.086;2023-02-22T09:06:05;18.02;;;8.88;;
37943;SDS011;23767;42.024;23.086;2023-02-22T09:08:32;16.08;;;8.45;;
37943;SDS011;23767;42.024;23.086;2023-02-22T09:10:58;17.70;;;8.43;;
37943;SDS011;23767;42.024;23.086;2023-02-22T09:13:24;13.93;;;8.48;;
37943;SDS011;23767;42.024;23.086;2023-02-22T09:15:50;15.90;;;8.48;;
37943;SDS011;23767;42.024;23.086;2023-02-22T09:18:16;19.80;;;9.85;;
37943;SDS011;23767;42.024;23.086;2023-02-22T09:20:42;14.43;;;9.15;;
37943;SDS011;23767;42.024;23.086;2023-02-22T09:23:09;15.93;;;9.00;;
37943;SDS011;23767;42.024;23.086;2023-02-22T09:25:35;19.90;;;8.68;;
37943;SDS011;23767;42.024;23.086;2023-02-22T09:28:02;15.23;;;8.95;;
37943;SDS011;23767;42.024;23.086;2023-02-22T09:30:30;15.63;;;8.13;;
37943;SDS011;23767;42.024;23.086;2023-02-22T09:32:57;14.32;;;8.48;;
37943;SDS011;23767;42.024;23.086;2023-02-22T09:35:23;14.95;;;8.57;;
37943;SDS011;23767;42.024;23.086;2023-02-22T09:37:51;15.73;;;9.25;;
37943;SDS011;23767;42.024;23.086;2023-02-22T09:40:17;18.00;;;8.57;;
37943;SDS011;23767;42.024;23.086;2023-02-22T09:48:13;18.20;;;7.68;;
37943;SDS011;23767;42.024;23.086;2023-02-22T09:50:41;16.65;;;8.70;;
37943;SDS011;23767;42.024;23.086;2023-02-22T09:53:16;15.85;;;8.55;;
37943;SDS011;23767;42.024;23.086;2023-02-22T09:55:49;14.77;;;7.18;;
37943;SDS011;23767;42.024;23.086;2023-02-22T10:00:48;16.75;;;8.25;;
37943;SDS011;23767;42.024;23.086;2023-02-22T10:05:46;18.83;;;9.23;;
37943;SDS011;23767;42.024;23.086;2023-02-22T10:08:15;17.60;;;8.25;;
37943;SDS011;23767;42.024;23.086;2023-02-22T10:10:43;13.65;;;6.90;;
37943;SDS011;23767;42.024;23.086;2023-02-22T10:20:51;14.63;;;7.32;;
37943;SDS011;23767;42.024;23.086;2023-02-22T10:23:24;14.57;;;6.07;;
37943;SDS011;23767;42.024;23.086;2023-02-22T10:25:58;16.00;;;7.20;;
37943;SDS011;23767;42.024;23.086;2023-02-22T10:28:33;16.05;;;6.78;;
37943;SDS011;23767;42.024;23.086;2023-02-22T10:31:04;17.25;;;7.10;;
37943;SDS011;23767;42.024;23.086;2023-02-22T10:33:53;19.23;;;6.88;;
37943;SDS011;23767;42.024;23.086;2023-02-22T10:36:21;12.73;;;6.22;;
37943;SDS011;23767;42.024;23.086;2023-02-22T10:41:30;21.17;;;6.55;;
37943;SDS011;23767;42.024;23.086;2023-02-22T10:43:57;19.30;;;6.57;;
37943;SDS011;23767;42.024;23.086;2023-02-22T10:46:23;15.35;;;6.35;;
37943;SDS011;23767;42.024;23.086;2023-02-22T10:48:51;14.57;;;6.05;;
37943;SDS011;23767;42.024;23.086;2023-02-22T10:51:17;13.93;;;6.07;;
37943;SDS011;23767;42.024;23.086;2023-02-22T10:53:43;12.50;;;5.93;;
37943;SDS011;23767;42.024;23.086;2023-02-22T10:56:15;13.98;;;6.15;;
37943;SDS011;23767;42.024;23.086;2023-02-22T10:58:42;13.52;;;6.32;;
37943;SDS011;23767;42.024;23.086;2023-02-22T11:01:18;13.77;;;6.13;;
37943;SDS011;23767;42.024;23.086;2023-02-22T11:03:44;15.43;;;5.93;;
37943;SDS011;23767;42.024;23.086;2023-02-22T11:06:20;13.38;;;5.65;;
37943;SDS011;23767;42.024;23.086;2023-02-22T11:08:46;16.77;;;6.20;;
37943;SDS011;23767;42.024;23.086;2023-02-22T11:11:25;13.75;;;5.47;;
37943;SDS011;23767;42.024;23.086;2023-02-22T11:13:54;16.10;;;6.35;;
37943;SDS011;23767;42.024;23.086;2023-02-22T11:21:34;15.98;;;6.50;;
37943;SDS011;23767;42.024;23.086;2023-02-22T11:24:05;19.08;;;6.07;;
37943;SDS011;23767;42.024;23.086;2023-02-22T11:29:12;11.73;;;5.38;;
37943;SDS011;23767;42.024;23.086;2023-02-22T11:31:42;21.75;;;7.28;;
37943;SDS011;23767;42.024;23.086;2023-02-22T11:34:23;18.67;;;6.45;;
37943;SDS011;23767;42.024;23.086;2023-02-22T11:36:50;22.70;;;5.97;;
37943;SDS011;23767;42.024;23.086;2023-02-22T11:39:24;16.30;;;5.95;;
37943;SDS011;23767;42.024;23.086;2023-02-22T11:41:50;22.65;;;6.95;;
37943;SDS011;23767;42.024;23.086;2023-02-22T11:46:45;18.80;;;6.15;;
37943;SDS011;23767;42.024;23.086;2023-02-22T11:49:12;14.50;;;5.50;;
37943;SDS011;23767;42.024;23.086;2023-02-22T11:54:27;14.23;;;5.78;;
37943;SDS011;23767;42.024;23.086;2023-02-22T11:59:37;19.83;;;5.57;;
37943;SDS011;23767;42.024;23.086;2023-02-22T12:04:51;19.83;;;5.82;;
37943;SDS011;23767;42.024;23.086;2023-02-22T12:17:24;14.25;;;5.32;;
37943;SDS011;23767;42.024;23.086;2023-02-22T12:19:55;18.83;;;6.50;;
37943;SDS011;23767;42.024;23.086;2023-02-22T12:22:25;16.95;;;5.78;;
37943;SDS011;23767;42.024;23.086;2023-02-22T12:24:54;16.70;;;5.00;;
37943;SDS011;23767;42.024;23.086;2023-02-22T12:27:24;16.77;;;5.13;;
37943;SDS011;23767;42.024;23.086;2023-02-22T12:29:54;15.23;;;5.05;;
37943;SDS011;23767;42.024;23.086;2023-02-22T12:34:50;17.73;;;4.95;;
37943;SDS011;23767;42.024;23.086;2023-02-22T12:37:23;16.02;;;5.43;;
37943;SDS011;23767;42.024;23.086;2023-02-22T12:45:07;20.48;;;5.53;;
37943;SDS011;23767;42.024;23.086;2023-02-22T12:47:37;12.07;;;4.68;;
37943;SDS011;23767;42.024;23.086;2023-02-22T12:50:22;14.82;;;5.00;;
37943;SDS011;23767;42.024;23.086;2023-02-22T12:52:58;19.05;;;5.25;;
37943;SDS011;23767;42.024;23.086;2023-02-22T12:55:32;12.25;;;4.32;;
37943;SDS011;23767;42.024;23.086;2023-02-22T13:00:27;9.60;;;2.88;;
37943;SDS011;23767;42.024;23.086;2023-02-22T13:02:56;7.40;;;2.40;;
37943;SDS011;23767;42.024;23.086;2023-02-22T13:05:23;8.02;;;2.70;;
37943;SDS011;23767;42.024;23.086;2023-02-22T13:20:30;5.88;;;2.40;;
37943;SDS011;23767;42.024;23.086;2023-02-22T13:25:43;6.03;;;2.40;;
37943;SDS011;23767;42.024;23.086;2023-02-22T13:33:18;9.20;;;3.08;;
37943;SDS011;23767;42.024;23.086;2023-02-22T13:38:20;8.10;;;2.88;;
37943;SDS011;23767;42.024;23.086;2023-02-22T13:48:40;8.23;;;2.80;;
37943;SDS011;23767;42.024;23.086;2023-02-22T13:51:13;8.02;;;2.60;;
37943;SDS011;23767;42.024;23.086;2023-02-22T13:53:52;9.20;;;3.00;;
37943;SDS011;23767;42.024;23.086;2023-02-22T13:56:20;6.95;;;2.63;;
37943;SDS011;23767;42.024;23.086;2023-02-22T14:01:36;5.82;;;2.50;;
37943;SDS011;23767;42.024;23.086;2023-02-22T14:06:47;7.55;;;3.00;;
37943;SDS011;23767;42.024;23.086;2023-02-22T14:09:15;7.50;;;2.65;;
37943;SDS011;23767;42.024;23.086;2023-02-22T14:11:47;7.40;;;2.90;;
37943;SDS011;23767;42.024;23.086;2023-02-22T14:14:18;7.38;;;2.70;;
37943;SDS011;23767;42.024;23.086;2023-02-22T14:17:14;9.68;;;2.50;;
37943;SDS011;23767;42.024;23.086;2023-02-22T14:19:30;9.13;;;2.80;;
37943;SDS011;23767;42.024;23.086;2023-02-22T14:22:00;7.15;;;2.75;;
37943;SDS011;23767;42.024;23.086;2023-02-22T14:24:28;11.25;;;2.90;;
37943;SDS011;23767;42.024;23.086;2023-02-22T14:26:57;15.60;;;4.38;;
37943;SDS011;23767;42.024;23.086;2023-02-22T14:29:24;9.35;;;2.88;;
37943;SDS011;23767;42.024;23.086;2023-02-22T14:34:17;10.48;;;3.60;;
37943;SDS011;23767;42.024;23.086;2023-02-22T14:39:11;8.55;;;3.00;;
37943;SDS011;23767;42.024;23.086;2023-02-22T14:41:40;8.77;;;2.75;;
37943;SDS011;23767;42.024;23.086;2023-02-22T14:44:07;7.13;;;3.08;;
37943;SDS011;23767;42.024;23.086;2023-02-22T14:46:37;9.23;;;3.17;;
37943;SDS011;23767;42.024;23.086;2023-02-22T14:49:04;8.68;;;2.97;;
37943;SDS011;23767;42.024;23.086;2023-02-22T14:51:48;7.93;;;3.55;;
37943;SDS011;23767;42.024;23.086;2023-02-22T14:54:31;8.52;;;3.60;;
37943;SDS011;23767;42.024;23.086;2023-02-22T14:57:13;8.35;;;4.13;;
37943;SDS011;23767;42.024;23.086;2023-02-22T14:59:51;8.57;;;3.40;;
37943;SDS011;23767;42.024;23.086;2023-02-22T15:02:21;10.68;;;6.50;;
37943;SDS011;23767;42.024;23.086;2023-02-22T15:04:50;12.43;;;6.75;;
37943;SDS011;23767;42.024;23.086;2023-02-22T15:07:21;12.02;;;6.95;;
37943;SDS011;23767;42.024;23.086;2023-02-22T15:09:51;14.15;;;7.20;;
37943;SDS011;23767;42.024;23.086;2023-02-22T15:12:26;12.95;;;4.40;;
37943;SDS011;23767;42.024;23.086;2023-02-22T15:17:40;8.65;;;3.10;;
37943;SDS011;23767;42.024;23.086;2023-02-22T15:20:11;7.22;;;2.65;;
37943;SDS011;23767;42.024;23.086;2023-02-22T15:22:40;6.82;;;3.03;;
37943;SDS011;23767;42.024;23.086;2023-02-22T15:25:07;10.00;;;4.13;;
37943;SDS011;23767;42.024;23.086;2023-02-22T15:27:36;7.63;;;4.25;;
37943;SDS011;23767;42.024;23.086;2023-02-22T15:30:04;12.55;;;5.78;;
37943;SDS011;23767;42.024;23.086;2023-02-22T15:32:32;7.88;;;4.22;;
37943;SDS011;23767;42.024;23.086;2023-02-22T15:35:17;8.25;;;4.88;;
37943;SDS011;23767;42.024;23.086;2023-02-22T15:37:44;8.95;;;5.40;;
37943;SDS011;23767;42.024;23.086;2023-02-22T15:40:17;8.98;;;5.00;;
37943;SDS011;23767;42.024;23.086;2023-02-22T15:42:48;10.45;;;7.20;;
37943;SDS011;23767;42.024;23.086;2023-02-22T15:45:18;8.70;;;3.10;;
37943;SDS011;23767;42.024;23.086;2023-02-22T15:47:45;9.15;;;3.35;;
37943;SDS011;23767;42.024;23.086;2023-02-22T15:50:28;17.45;;;11.02;;
37943;SDS011;23767;42.024;23.086;2023-02-22T15:55:29;18.67;;;13.52;;
37943;SDS011;23767;42.024;23.086;2023-02-22T15:57:57;14.35;;;6.80;;
37943;SDS011;23767;42.024;23.086;2023-02-22T16:00:26;19.67;;;12.43;;
37943;SDS011;23767;42.024;23.086;2023-02-22T16:03:00;20.60;;;8.73;;
37943;SDS011;23767;42.024;23.086;2023-02-22T16:05:45;34.42;;;7.03;;
37943;SDS011;23767;42.024;23.086;2023-02-22T16:08:22;20.20;;;6.88;;
37943;SDS011;23767;42.024;23.086;2023-02-22T16:10:57;15.95;;;6.10;;
37943;SDS011;23767;42.024;23.086;2023-02-22T16:13:25;20.83;;;7.75;;
37943;SDS011;23767;42.024;23.086;2023-02-22T16:16:01;20.13;;;6.78;;
37943;SDS011;23767;42.024;23.086;2023-02-22T16:18:35;26.10;;;5.10;;
37943;SDS011;23767;42.024;23.086;2023-02-22T16:21:06;23.15;;;4.15;;
37943;SDS011;23767;42.024;23.086;2023-02-22T16:23:51;20.52;;;6.05;;
37943;SDS011;23767;42.024;23.086;2023-02-22T16:28:48;24.40;;;6.90;;
37943;SDS011;23767;42.024;23.086;2023-02-22T16:31:16;25.00;;;9.38;;
37943;SDS011;23767;42.024;23.086;2023-02-22T16:33:44;19.08;;;8.80;;
37943;SDS011;23767;42.024;23.086;2023-02-22T16:36:10;30.02;;;14.40;;
37943;SDS011;23767;42.024;23.086;2023-02-22T16:38:36;32.00;;;16.70;;
37943;SDS011;23767;42.024;23.086;2023-02-22T16:41:03;22.35;;;14.57;;
37943;SDS011;23767;42.024;23.086;2023-02-22T16:43:30;26.75;;;13.85;;
37943;SDS011;23767;42.024;23.086;2023-02-22T16:45:57;27.48;;;16.08;;